Time;durP1;ratioP1;P1;durP2;ratioP2;P2;SDS_P1;SDS_P2;PMS_P1;PMS_P2;Temp;Humidity;BMP_temperature;BMP_pressure;BME280_temperature;BME280_humidity;BME280_pressure;Samples;Min_cycle;Max_cycle;Signal;HPM_P1;HPM_P2
2022/12/22 03:27:43;;;;;;;20.40;11.48;;;;;;;7.28;96.22;97409.88;4973653;28;20114;-88
2022/12/22 03:30:09;;;;;;;18.95;10.93;;;;;;;7.37;96.28;97432.19;4973677;28;20114;-88
2022/12/22 03:32:35;;;;;;;19.05;11.90;;;;;;;7.29;96.42;97411.50;4983842;28;20035;-89
2022/12/22 03:35:00;;;;;;;21.13;10.98;;;;;;;7.34;96.37;97424.75;4959083;28;20450;-88
2022/12/22 03:37:26;;;;;;;20.33;11.38;;;;;;;7.47;96.52;97432.63;4974358;28;20059;-88
2022/12/22 03:39:52;;;;;;;18.30;10.35;;;;;;;7.24;96.77;97412.06;4977570;28;20491;-88
2022/12/22 03:47:47;;;;;;;18.88;11.05;;;;;;;7.24;97.09;97381.56;4969857;28;20031;-88
2022/12/22 03:50:12;;;;;;;18.80;10.98;;;;;;;7.29;96.46;97390.63;4957136;28;20504;-88
2022/12/22 03:52:39;;;;;;;19.83;11.43;;;;;;;7.33;96.48;97382.22;4980447;28;20471;-88
2022/12/22 03:55:05;;;;;;;18.55;11.35;;;;;;;7.39;96.60;97391.06;4974747;28;20034;-88
2022/12/22 03:57:31;;;;;;;18.45;11.43;;;;;;;7.35;96.93;97382.81;4978248;28;20027;-87
2022/12/22 03:59:56;;;;;;;16.63;10.57;;;;;;;7.37;96.75;97385.22;4975162;28;20090;-88
2022/12/22 04:02:24;;;;;;;20.45;11.55;;;;;;;7.36;96.62;97373.19;4975323;28;20026;-89
2022/12/22 04:04:50;;;;;;;17.50;10.30;;;;;;;7.56;96.75;97384.50;4980204;28;20035;-88
2022/12/22 04:07:15;;;;;;;17.73;11.13;;;;;;;7.56;96.93;97384.50;4956111;28;20126;-88
2022/12/22 04:12:53;;;;;;;15.75;10.27;;;;;;;7.48;96.75;97367.19;4979549;28;20065;-88
2022/12/22 04:15:10;;;;;;;14.77;9.57;;;;;;;7.62;96.39;97372.47;4981912;28;20033;-88
2022/12/22 04:17:35;;;;;;;16.73;10.55;;;;;;;7.65;96.34;97380.69;4982626;28;20042;-88
2022/12/22 04:20:01;;;;;;;17.75;10.27;;;;;;;7.54;96.41;97381.25;4982680;28;20045;-88
2022/12/22 04:22:26;;;;;;;15.65;9.95;;;;;;;7.48;96.52;97369.00;4988407;28;20034;-87
2022/12/22 04:24:52;;;;;;;16.98;10.23;;;;;;;7.59;96.92;97375.47;4987781;28;20035;-87
2022/12/22 04:27:18;;;;;;;15.75;9.73;;;;;;;7.60;96.65;97379.66;4972666;28;20522;-88
2022/12/22 04:29:43;;;;;;;15.93;9.95;;;;;;;7.58;96.37;97366.81;4972142;28;20038;-88
2022/12/22 04:32:11;;;;;;;15.90;10.15;;;;;;;7.62;96.72;97368.03;4972807;28;20027;-87
2022/12/22 04:34:36;;;;;;;17.20;9.63;;;;;;;7.62;96.63;97368.03;4960364;28;20121;-88
2022/12/22 04:37:02;;;;;;;17.13;10.30;;;;;;;7.54;96.72;97349.16;4990774;28;20538;-88
2022/12/22 04:39:27;;;;;;;21.15;10.25;;;;;;;7.63;96.88;97354.00;4969067;28;20045;-88
2022/12/22 04:41:53;;;;;;;15.48;10.15;;;;;;;7.66;96.49;97353.56;4972306;28;20053;-88
2022/12/22 04:44:19;;;;;;;13.70;8.30;;;;;;;7.61;96.44;97345.53;4980714;28;20105;-87
2022/12/22 04:46:45;;;;;;;14.10;9.25;;;;;;;7.59;96.46;97334.50;4981004;28;20039;-88
2022/12/22 04:49:11;;;;;;;15.13;9.05;;;;;;;7.67;96.52;97339.53;4954633;28;20027;-88
2022/12/22 04:51:36;;;;;;;17.30;10.07;;;;;;;7.65;96.47;97325.06;4969627;28;20097;-88
2022/12/22 04:54:02;;;;;;;15.82;9.65;;;;;;;7.69;96.23;97332.31;4976139;28;20066;-88
2022/12/22 04:56:30;;;;;;;15.93;9.27;;;;;;;7.74;96.04;97345.56;4972699;28;20038;-87
2022/12/22 04:58:55;;;;;;;19.08;10.93;;;;;;;7.83;96.17;97345.38;4971985;28;20034;-88
2022/12/22 05:01:21;;;;;;;20.10;10.95;;;;;;;7.76;95.80;97343.56;4938569;28;20062;-89
2022/12/22 05:03:47;;;;;;;20.17;12.60;;;;;;;7.88;95.38;97345.56;4975548;28;20386;-89
2022/12/22 05:06:13;;;;;;;15.32;10.27;;;;;;;7.94;95.15;97336.94;4975851;28;20046;-89
2022/12/22 05:08:38;;;;;;;14.38;9.85;;;;;;;7.98;95.11;97351.22;4958267;28;20026;-88
2022/12/22 05:11:05;;;;;;;15.32;11.30;;;;;;;7.92;94.92;97325.91;4981000;28;20046;-89
2022/12/22 05:13:31;;;;;;;13.20;9.38;;;;;;;7.80;95.41;97328.31;4955139;28;20037;-88
2022/12/22 05:16:12;;;;;;;15.82;9.68;;;;;;;7.79;95.69;97316.25;4978100;28;20089;-89
2022/12/22 05:18:39;;;;;;;14.27;9.20;;;;;;;7.73;95.85;97307.41;4952247;28;20073;-88
2022/12/22 05:21:12;;;;;;;14.60;9.18;;;;;;;7.83;96.01;97325.28;4975078;28;20666;-87
2022/12/22 05:23:38;;;;;;;14.32;8.65;;;;;;;7.68;95.91;97299.38;4940397;28;20427;-89
2022/12/22 05:26:05;;;;;;;14.90;8.93;;;;;;;7.72;95.96;97318.84;4962507;28;20462;-88
2022/12/22 05:28:31;;;;;;;14.63;9.25;;;;;;;7.58;96.07;97298.97;4991930;28;20037;-88
2022/12/22 05:31:04;;;;;;;16.40;9.25;;;;;;;7.67;96.16;97308.19;4986933;28;20031;-89
2022/12/22 05:33:30;;;;;;;15.48;9.05;;;;;;;7.63;96.13;97311.44;4983154;28;20042;-87
2022/12/22 05:35:57;;;;;;;17.40;9.57;;;;;;;7.68;96.48;97309.03;4985438;28;20545;-89
2022/12/22 05:38:23;;;;;;;14.45;9.45;;;;;;;7.80;96.44;97312.66;4973975;28;20133;-90
2022/12/22 05:40:49;;;;;;;14.38;9.23;;;;;;;7.75;96.18;97310.63;4973633;28;20478;-89
2022/12/22 05:43:17;;;;;;;15.48;9.10;;;;;;;7.71;95.83;97304.19;4940661;29;20086;-88
2022/12/22 05:45:46;;;;;;;15.65;9.35;;;;;;;7.87;96.05;97317.88;4960287;28;20022;-88
2022/12/22 05:48:12;;;;;;;14.73;9.48;;;;;;;7.87;95.74;97313.44;4972760;28;20498;-89
2022/12/22 05:50:38;;;;;;;15.63;10.18;;;;;;;7.85;95.43;97310.22;4969045;28;20043;-88
2022/12/22 05:53:06;;;;;;;14.10;8.73;;;;;;;7.73;95.31;97285.72;4987213;28;20697;-88
2022/12/22 05:55:33;;;;;;;16.27;9.18;;;;;;;7.85;95.06;97319.84;4978143;28;20046;-89
2022/12/22 05:58:02;;;;;;;16.25;9.55;;;;;;;7.85;95.34;97322.47;4966725;28;20034;-89
2022/12/22 06:00:31;;;;;;;13.73;9.40;;;;;;;7.87;94.89;97310.84;4972183;28;20613;-89
2022/12/22 06:02:58;;;;;;;15.57;9.73;;;;;;;7.88;94.95;97314.25;4972598;28;20026;-89
2022/12/22 06:05:30;;;;;;;15.25;8.80;;;;;;;7.68;95.47;97283.72;4953237;29;20043;-89
2022/12/22 06:07:57;;;;;;;14.98;10.20;;;;;;;7.88;95.31;97319.47;4952261;29;20442;-89
2022/12/22 06:10:24;;;;;;;15.65;9.60;;;;;;;7.88;95.03;97319.47;4964659;28;20035;-88
2022/12/22 06:12:49;;;;;;;14.57;9.27;;;;;;;7.87;95.06;97323.09;4973525;28;20046;-89
2022/12/22 06:15:15;;;;;;;13.52;9.25;;;;;;;7.72;94.97;97300.56;4955020;28;20081;-89
2022/12/22 06:17:41;;;;;;;14.18;9.35;;;;;;;7.85;95.17;97309.41;4968405;28;20039;-89
2022/12/22 06:20:08;;;;;;;15.25;9.90;;;;;;;7.76;94.98;97291.34;4984968;28;20090;-89
2022/12/22 06:22:34;;;;;;;13.82;10.05;;;;;;;7.79;94.97;97285.72;4967010;28;20047;-88
2022/12/22 06:24:59;;;;;;;12.82;9.55;;;;;;;7.91;94.80;97308.59;4984539;28;20036;-88
2022/12/22 06:27:25;;;;;;;13.90;9.35;;;;;;;7.98;94.43;97288.53;4976324;28;20050;-89
2022/12/22 06:29:51;;;;;;;14.27;8.82;;;;;;;7.89;94.62;97290.53;4968053;28;20027;-88
2022/12/22 06:32:16;;;;;;;12.75;8.75;;;;;;;7.93;94.52;97281.31;4960339;28;20552;-88
2022/12/22 06:34:42;;;;;;;13.60;9.07;;;;;;;7.92;94.33;97274.50;4949502;28;20066;-88
2022/12/22 06:37:08;;;;;;;14.10;8.90;;;;;;;7.91;94.37;97282.50;4975576;28;20042;-89
2022/12/22 06:39:36;;;;;;;12.70;9.32;;;;;;;8.08;94.53;97307.19;4972577;28;20027;-89
2022/12/22 06:44:46;;;;;;;12.73;8.20;;;;;;;8.07;94.80;97310.81;4970480;28;20038;-87
2022/12/22 06:47:11;;;;;;;12.48;8.70;;;;;;;8.01;94.77;97294.16;4954232;28;20129;-89
2022/12/22 06:49:41;;;;;;;13.13;8.05;;;;;;;8.05;94.72;97299.78;4964992;28;20039;-89
2022/12/22 06:52:08;;;;;;;10.48;6.65;;;;;;;8.08;94.89;97286.31;4968839;28;20400;-88
2022/12/22 06:54:33;;;;;;;12.60;7.88;;;;;;;8.10;95.09;97286.91;4957100;28;20037;-88
2022/12/22 06:56:59;;;;;;;11.30;8.50;;;;;;;8.20;95.57;97307.38;4970806;28;20035;-89
2022/12/22 06:59:25;;;;;;;11.98;7.70;;;;;;;8.08;95.63;97288.91;4942440;28;20039;-87
2022/12/22 07:01:50;;;;;;;13.02;7.68;;;;;;;7.99;96.24;97284.91;4953375;28;20042;-88
2022/12/22 07:04:19;;;;;;;11.63;6.80;;;;;;;8.04;96.52;97278.09;4970546;28;20106;-87
2022/12/22 07:06:48;;;;;;;12.75;7.53;;;;;;;8.01;96.74;97267.22;4973832;28;20026;-88
2022/12/22 07:09:14;;;;;;;11.00;7.55;;;;;;;8.13;97.19;97286.50;4976664;28;20120;-86
2022/12/22 07:11:39;;;;;;;11.57;7.47;;;;;;;8.16;97.10;97280.09;4981958;28;20110;-88
2022/12/22 07:14:05;;;;;;;14.90;7.47;;;;;;;8.22;97.35;97293.13;4956029;28;20352;-88
2022/12/22 07:16:31;;;;;;;13.15;8.15;;;;;;;8.05;97.73;97268.44;4955952;28;20035;-88
2022/12/22 07:18:56;;;;;;;11.77;8.40;;;;;;;8.03;97.66;97260.78;4974079;28;20034;-86
2022/12/22 07:21:22;;;;;;;12.73;7.50;;;;;;;8.17;98.06;97277.25;4968686;28;20042;-88
2022/12/22 07:23:47;;;;;;;12.43;8.18;;;;;;;8.16;98.42;97282.69;4981838;28;20056;-88
2022/12/22 07:26:15;;;;;;;13.27;7.82;;;;;;;8.01;98.02;97252.38;4976779;28;20038;-88
2022/12/22 07:28:41;;;;;;;12.48;7.32;;;;;;;8.07;97.82;97271.63;4978961;28;20042;-88
2022/12/22 07:31:09;;;;;;;11.73;7.53;;;;;;;8.26;97.78;97270.78;4960663;28;20035;-87
2022/12/22 07:33:35;;;;;;;10.38;6.88;;;;;;;8.12;97.82;97265.81;4973007;28;20485;-88
2022/12/22 07:36:07;;;;;;;13.93;8.57;;;;;;;8.30;98.19;97276.41;4971404;28;20041;-88
2022/12/22 07:38:37;;;;;;;13.40;8.27;;;;;;;8.29;98.28;97283.47;4953792;28;20051;-88
2022/12/22 07:43:51;;;;;;;12.80;7.60;;;;;;;8.29;98.26;97278.25;4974374;28;20034;-86
2022/12/22 07:46:16;;;;;;;11.40;7.97;;;;;;;8.27;98.29;97267.16;4988592;28;20109;-86
2022/12/22 07:51:26;;;;;;;12.23;7.28;;;;;;;8.40;97.49;97262.97;4959269;28;20095;-86
2022/12/22 07:53:51;;;;;;;10.65;7.05;;;;;;;8.36;97.41;97267.00;4986805;28;20046;-86
2022/12/22 07:56:17;;;;;;;12.77;6.90;;;;;;;8.39;97.39;97275.22;4981292;28;20042;-86
2022/12/22 07:58:42;;;;;;;9.07;6.78;;;;;;;8.45;97.04;97273.59;4965781;28;20040;-86
2022/12/22 08:01:08;;;;;;;9.52;6.57;;;;;;;8.59;96.49;97275.16;4981422;28;20034;-87
2022/12/22 08:03:33;;;;;;;10.80;6.70;;;;;;;8.53;95.98;97255.09;4972948;28;20098;-86
2022/12/22 08:06:04;;;;;;;9.07;6.15;;;;;;;8.59;95.34;97264.72;4976265;28;20085;-86
2022/12/22 08:08:29;;;;;;;9.60;6.30;;;;;;;8.57;95.19;97261.47;4959375;28;20543;-86
2022/12/22 08:10:55;;;;;;;10.15;6.38;;;;;;;8.77;94.85;97272.69;4977366;28;20046;-87
2022/12/22 08:13:20;;;;;;;9.73;5.95;;;;;;;8.72;94.63;97263.84;4959969;28;20113;-87
2022/12/22 08:15:45;;;;;;;9.38;6.10;;;;;;;8.90;94.57;97263.16;4969365;28;20508;-86
2022/12/22 08:18:11;;;;;;;10.45;6.20;;;;;;;8.95;94.48;97266.75;4977199;28;20113;-87
2022/12/22 08:20:37;;;;;;;7.72;5.65;;;;;;;9.01;94.09;97255.47;4983348;28;20039;-87
2022/12/22 08:23:02;;;;;;;9.85;6.35;;;;;;;9.22;92.83;97254.31;4983711;28;20042;-87
2022/12/22 08:25:30;;;;;;;8.57;5.65;;;;;;;9.46;92.42;97268.44;4965815;28;20039;-86
2022/12/22 08:27:57;;;;;;;10.98;5.95;;;;;;;9.44;91.92;97259.22;4980483;28;20487;-86
2022/12/22 08:30:23;;;;;;;9.07;5.55;;;;;;;9.36;91.19;97255.84;4979733;28;20038;-84
2022/12/22 08:32:50;;;;;;;7.93;5.85;;;;;;;9.43;91.59;97252.38;4976669;28;20030;-86
2022/12/22 08:35:16;;;;;;;7.82;5.60;;;;;;;9.36;91.87;97266.31;4978223;28;20030;-86
2022/12/22 08:37:46;;;;;;;9.68;5.72;;;;;;;9.31;91.98;97263.53;4966975;28;20054;-87
2022/12/22 08:40:20;;;;;;;9.05;5.50;;;;;;;9.39;91.73;97270.31;4975122;28;20069;-86
2022/12/22 08:42:49;;;;;;;8.95;5.80;;;;;;;9.36;91.76;97268.13;4974887;28;20038;-86
2022/12/22 08:45:14;;;;;;;6.63;4.80;;;;;;;9.32;91.87;97270.38;4975084;28;20046;-86
2022/12/22 08:47:40;;;;;;;10.27;4.78;;;;;;;9.21;91.17;97268.41;4972338;28;20477;-86
2022/12/22 08:50:07;;;;;;;6.68;4.13;;;;;;;9.18;91.17;97266.25;4987796;28;20398;-86
2022/12/22 08:52:32;;;;;;;6.72;4.38;;;;;;;9.29;90.88;97259.50;4968297;28;20063;-86
2022/12/22 08:54:58;;;;;;;9.50;4.28;;;;;;;9.39;90.90;97265.88;4975118;28;20043;-87
2022/12/22 08:57:23;;;;;;;7.03;4.13;;;;;;;9.34;90.64;97270.94;4963821;28;20046;-87
2022/12/22 08:59:48;;;;;;;6.07;3.80;;;;;;;9.37;90.31;97252.22;4981400;28;20418;-87
2022/12/22 09:02:14;;;;;;;8.52;3.70;;;;;;;9.52;90.10;97256.31;4972051;28;20049;-87
2022/12/22 09:04:40;;;;;;;6.55;4.13;;;;;;;9.57;89.83;97253.88;4983724;28;20121;-88
2022/12/22 09:07:05;;;;;;;5.25;3.78;;;;;;;9.81;89.14;97270.59;4972899;28;20127;-87
2022/12/22 09:09:33;;;;;;;6.63;4.22;;;;;;;9.66;88.86;97265.69;4965379;28;20045;-86
2022/12/22 09:12:01;;;;;;;6.93;3.80;;;;;;;9.57;88.86;97244.22;4957461;28;20027;-88
2022/12/22 09:14:28;;;;;;;7.53;3.97;;;;;;;9.69;88.34;97254.78;4982582;28;20114;-86
2022/12/22 09:16:53;;;;;;;7.57;3.97;;;;;;;9.62;88.81;97243.56;4981062;28;20038;-86
2022/12/22 09:19:19;;;;;;;7.97;3.95;;;;;;;9.53;88.98;97235.16;4966414;28;20181;-87
2022/12/22 09:21:44;;;;;;;6.80;3.17;;;;;;;9.54;88.57;97230.75;4982340;28;20121;-87
2022/12/22 09:24:10;;;;;;;6.88;3.45;;;;;;;9.57;88.77;97243.41;4983964;28;20037;-87
2022/12/22 09:26:36;;;;;;;4.70;3.20;;;;;;;9.58;88.79;97247.63;4984425;28;20121;-87
2022/12/22 09:29:03;;;;;;;6.05;3.72;;;;;;;9.75;89.19;97264.41;4978958;28;20026;-87
2022/12/22 09:31:28;;;;;;;4.15;3.55;;;;;;;9.87;89.47;97261.88;4985404;28;20042;-87
2022/12/22 09:33:54;;;;;;;4.13;3.08;;;;;;;9.86;88.30;97250.63;4953087;28;20105;-87
2022/12/22 09:36:29;;;;;;;5.82;3.03;;;;;;;9.96;88.22;97254.56;4962376;28;20051;-87
2022/12/22 09:38:54;;;;;;;3.05;2.40;;;;;;;10.09;87.66;97254.44;4952805;28;20058;-86
2022/12/22 09:41:35;;;;;;;4.63;2.47;;;;;;;10.16;86.99;97250.72;4976869;28;20049;-87
2022/12/22 09:44:13;;;;;;;6.32;2.20;;;;;;;10.23;86.70;97244.63;4972088;28;20469;-86
2022/12/22 09:46:40;;;;;;;6.18;2.25;;;;;;;10.17;85.88;97244.47;4969788;28;20085;-87
2022/12/22 09:49:06;;;;;;;3.70;2.00;;;;;;;10.26;86.77;97255.50;4977213;28;20505;-88
2022/12/22 09:51:46;;;;;;;4.03;1.42;;;;;;;10.42;86.17;97272.47;4950909;28;20026;-88
2022/12/22 09:54:15;;;;;;;4.57;1.25;;;;;;;10.37;85.72;97253.97;4972580;28;20039;-86
2022/12/22 09:56:41;;;;;;;5.97;1.10;;;;;;;10.43;83.88;97261.78;4951446;28;20039;-88
2022/12/22 09:59:14;;;;;;;1.85;0.90;;;;;;;10.59;82.73;97263.00;4970348;28;20039;-87
2022/12/22 10:02:13;;;;;;;3.58;1.60;;;;;;;10.78;83.23;97260.34;4983088;28;20034;-87
2022/12/22 10:05:04;;;;;;;4.45;1.40;;;;;;;10.73;82.92;97250.50;4969730;28;20531;-87
2022/12/22 10:07:41;;;;;;;4.45;1.33;;;;;;;10.86;83.28;97258.25;4951203;28;20549;-84
2022/12/22 10:10:23;;;;;;;3.95;1.35;;;;;;;10.88;83.40;97250.94;4970097;28;20034;-87
2022/12/22 10:12:50;;;;;;;6.10;1.67;;;;;;;10.79;83.03;97238.34;4981550;28;20041;-87
2022/12/22 10:15:16;;;;;;;5.30;1.52;;;;;;;10.84;83.53;97241.91;4977526;28;20042;-86
2022/12/22 10:17:41;;;;;;;5.35;1.95;;;;;;;10.82;83.22;97222.97;4979509;28;20084;-86
2022/12/22 10:20:24;;;;;;;2.78;1.80;;;;;;;11.08;82.68;97236.75;4979344;28;20039;-87
2022/12/22 10:23:30;;;;;;;7.40;1.90;;;;;;;11.32;81.94;97240.25;4969828;28;20026;-86
2022/12/22 10:26:05;;;;;;;4.30;2.20;;;;;;;11.49;81.92;97239.38;4930208;28;20082;-86
2022/12/22 10:28:56;;;;;;;5.47;1.80;;;;;;;11.57;80.13;97238.22;4974030;28;20117;-86
2022/12/22 10:31:25;;;;;;;3.70;2.08;;;;;;;11.61;80.58;97241.22;4959588;28;20834;-87
2022/12/22 10:33:55;;;;;;;5.15;1.88;;;;;;;11.45;80.46;97238.19;4969775;28;20344;-85
2022/12/22 10:36:31;;;;;;;4.13;1.57;;;;;;;11.32;79.62;97237.63;4950363;28;20031;-86
2022/12/22 10:39:26;;;;;;;4.75;1.75;;;;;;;11.30;80.77;97234.44;4960465;28;21041;-86
2022/12/22 10:41:55;;;;;;;5.00;1.90;;;;;;;11.19;80.61;97228.13;4963238;28;20043;-86
2022/12/22 10:44:34;;;;;;;5.15;2.20;;;;;;;11.20;80.02;97221.84;4983071;28;20668;-86
2022/12/22 10:47:14;;;;;;;5.32;1.70;;;;;;;11.24;80.71;97236.13;4964181;28;20129;-87
2022/12/22 10:49:46;;;;;;;4.57;1.70;;;;;;;11.09;81.08;97240.97;4979560;28;20034;-88
2022/12/22 10:52:28;;;;;;;3.17;1.65;;;;;;;11.05;81.57;97234.59;4972165;28;20121;-87
2022/12/22 10:55:34;;;;;;;4.55;2.00;;;;;;;10.84;81.98;97228.78;4970835;28;20690;-86
2022/12/22 10:58:27;;;;;;;5.07;1.60;;;;;;;10.70;81.72;97209.00;4968126;28;20030;-86
2022/12/22 11:01:04;;;;;;;7.73;2.70;;;;;;;10.77;79.59;97230.69;4969932;28;20105;-87
2022/12/22 11:03:31;;;;;;;3.67;1.08;;;;;;;10.84;79.03;97226.16;4982936;28;20035;-86
2022/12/22 11:05:59;;;;;;;3.17;1.60;;;;;;;10.87;78.80;97214.44;4972069;28;20969;-86
2022/12/22 11:08:29;;;;;;;3.65;1.25;;;;;;;10.78;77.05;97194.78;4974894;28;20117;-87
2022/12/22 11:11:06;;;;;;;4.32;1.02;;;;;;;10.97;75.74;97212.88;4962148;28;20031;-86
2022/12/22 11:14:19;;;;;;;3.17;1.10;;;;;;;10.99;76.06;97223.94;4982414;28;20061;-87
2022/12/22 11:16:51;;;;;;;3.85;0.93;;;;;;;11.04;74.84;97214.63;4939656;28;20086;-87
2022/12/22 11:20:03;;;;;;;3.65;1.63;;;;;;;11.08;74.81;97211.31;4975206;28;20034;-86
2022/12/22 11:22:53;;;;;;;1.38;0.73;;;;;;;10.98;74.86;97222.34;4943436;28;20419;-88
2022/12/22 11:25:37;;;;;;;4.57;1.25;;;;;;;11.05;74.19;97224.09;4972911;28;20035;-87
2022/12/22 11:28:27;;;;;;;2.17;1.23;;;;;;;11.07;75.29;97201.84;4955023;28;20081;-87
2022/12/22 11:31:25;;;;;;;3.28;0.70;;;;;;;10.96;75.85;97198.16;4985770;28;20475;-85
2022/12/22 11:34:29;;;;;;;1.73;0.70;;;;;;;10.89;77.60;97197.44;4976933;28;20035;-85
2022/12/22 11:37:08;;;;;;;2.92;0.65;;;;;;;10.77;76.85;97180.88;4976154;28;20030;-87
2022/12/22 11:39:53;;;;;;;3.67;1.10;;;;;;;10.83;77.50;97198.34;4980435;28;20030;-86
2022/12/22 11:42:21;;;;;;;2.33;1.00;;;;;;;10.78;77.64;97221.81;4971133;28;20035;-85
2022/12/22 11:45:38;;;;;;;2.15;0.82;;;;;;;10.65;78.77;97185.28;4963979;28;20503;-86
2022/12/22 11:48:36;;;;;;;1.35;0.88;;;;;;;10.63;79.42;97209.09;4947253;28;20383;-85
2022/12/22 11:51:42;;;;;;;1.73;0.55;;;;;;;10.45;80.63;97194.19;4946979;28;20045;-87
2022/12/22 11:54:33;;;;;;;3.67;0.98;;;;;;;10.50;80.58;97204.03;4972448;28;20043;-86
2022/12/22 11:57:21;;;;;;;2.95;0.88;;;;;;;10.49;81.44;97199.78;4990180;28;20034;-87
2022/12/22 12:00:04;;;;;;;0.90;0.60;;;;;;;10.44;82.06;97200.47;4977723;28;20051;-87
2022/12/22 12:03:31;;;;;;;1.50;0.57;;;;;;;10.36;82.61;97203.34;4973177;28;20077;-86
2022/12/22 12:07:02;;;;;;;1.08;0.75;;;;;;;10.35;82.62;97191.28;4969509;28;20026;-84
2022/12/22 12:09:49;;;;;;;3.38;0.82;;;;;;;10.32;83.43;97204.84;4922730;29;20453;-86
2022/12/22 12:12:39;;;;;;;1.45;0.80;;;;;;;10.14;83.92;97197.75;4978738;28;20033;-86
2022/12/22 12:15:33;;;;;;;2.63;1.03;;;;;;;10.21;85.36;97209.97;4972371;28;20278;-86
2022/12/22 12:18:45;;;;;;;2.42;0.98;;;;;;;10.10;86.61;97209.69;4934273;29;20479;-87
2022/12/22 12:21:44;;;;;;;1.73;0.90;;;;;;;9.94;89.63;97199.75;4976639;28;20027;-86
2022/12/22 12:24:28;;;;;;;1.92;0.80;;;;;;;9.88;90.66;97211.09;4973714;28;20102;-86
2022/12/22 12:27:33;;;;;;;2.70;0.90;;;;;;;9.79;90.37;97204.56;4971051;28;20522;-86
2022/12/22 12:30:11;;;;;;;2.35;0.80;;;;;;;9.87;90.91;97210.31;4961758;28;20061;-87
2022/12/22 12:32:55;;;;;;;2.47;0.90;;;;;;;9.70;91.36;97193.53;4979837;28;20106;-87
2022/12/22 12:35:20;;;;;;;2.33;0.90;;;;;;;9.78;93.31;97216.06;4961957;28;20027;-87
2022/12/22 12:38:01;;;;;;;1.60;0.75;;;;;;;9.56;93.82;97200.72;4948077;28;20416;-86
2022/12/22 12:40:49;;;;;;;2.58;0.80;;;;;;;9.61;94.80;97205.31;4955365;28;20035;-87
2022/12/22 12:43:16;;;;;;;2.78;1.02;;;;;;;9.45;94.61;97195.38;4966708;28;20117;-87
2022/12/22 12:45:47;;;;;;;2.58;1.25;;;;;;;9.43;94.36;97202.66;4981584;28;20049;-88
2022/12/22 12:48:19;;;;;;;;;;;;;;;9.55;94.65;97214.03;4952940;28;20512;-87
2022/12/22 12:50:55;;;;;;;1.52;1.15;;;;;;;9.37;94.10;97205.09;4952604;28;19933;-87
2022/12/22 12:53:28;;;;;;;2.33;0.95;;;;;;;9.37;93.89;97205.09;4973334;28;20023;-87
2022/12/22 12:56:04;;;;;;;2.83;0.98;;;;;;;9.46;93.67;97212.69;4975037;28;20038;-87
2022/12/22 12:58:39;;;;;;;3.30;0.88;;;;;;;9.60;93.13;97235.94;4973499;28;20034;-88
2022/12/22 13:01:12;;;;;;;2.03;1.05;;;;;;;9.60;92.68;97250.84;4975001;28;20046;-88
2022/12/22 13:03:43;;;;;;;1.88;1.02;;;;;;;9.58;92.73;97247.63;4978162;28;20117;-88
2022/12/22 13:06:45;;;;;;;1.85;0.93;;;;;;;9.63;92.52;97250.41;4975714;28;20490;-88
2022/12/22 13:09:16;;;;;;;2.95;0.80;;;;;;;9.54;93.05;97246.47;4949926;28;20121;-89
2022/12/22 13:11:42;;;;;;;1.05;0.52;;;;;;;9.62;93.09;97260.09;4972088;28;20058;-89
2022/12/22 13:14:07;;;;;;;4.60;1.30;;;;;;;9.52;93.04;97254.50;4954264;28;20125;-87
2022/12/22 13:16:37;;;;;;;3.70;1.42;;;;;;;9.46;92.97;97234.44;4969835;28;20089;-88
2022/12/22 13:19:15;;;;;;;1.30;0.80;;;;;;;9.70;92.86;97263.44;4980802;28;20034;-88
2022/12/22 13:21:44;;;;;;;2.33;1.10;;;;;;;9.57;91.97;97252.06;4991830;28;20049;-85
2022/12/22 13:24:09;;;;;;;1.42;1.00;;;;;;;9.77;90.68;97264.97;4979459;28;20122;-86
2022/12/22 13:26:40;;;;;;;2.38;1.08;;;;;;;9.73;91.01;97255.97;4976301;28;20113;-87
2022/12/22 13:29:25;;;;;;;2.13;1.23;;;;;;;9.76;90.73;97250.28;4973341;28;20043;-87
2022/12/22 13:32:19;;;;;;;2.50;0.98;;;;;;;9.80;89.69;97261.94;4964643;28;20035;-87
2022/12/22 13:35:33;;;;;;;1.73;1.02;;;;;;;9.96;88.18;97265.06;4952122;28;20031;-87
2022/12/22 13:37:58;;;;;;;1.48;1.00;;;;;;;9.91;87.02;97266.50;4905080;29;20064;-86
2022/12/22 13:40:41;;;;;;;1.92;1.02;;;;;;;10.08;87.06;97282.47;4951192;28;20101;-87
2022/12/22 13:43:15;;;;;;;1.75;1.20;;;;;;;10.11;87.16;97283.84;4958616;28;20474;-87
2022/12/22 13:45:44;;;;;;;1.40;1.00;;;;;;;10.11;86.90;97315.28;4973106;28;20038;-87
2022/12/22 13:48:24;;;;;;;3.20;1.10;;;;;;;10.12;87.34;97295.91;4966567;28;20053;-87
2022/12/22 13:50:54;;;;;;;0.68;0.68;;;;;;;10.05;86.81;97295.19;4970684;28;20026;-88
2022/12/22 13:53:44;;;;;;;;;;;;;;;10.13;86.61;97289.66;4976771;28;20031;-87
2022/12/22 13:56:22;;;;;;;2.20;1.00;;;;;;;10.07;87.36;97303.63;4962437;28;20417;-87
2022/12/22 13:58:57;;;;;;;0.88;0.75;;;;;;;9.99;86.75;97351.84;4977753;28;20078;-88
2022/12/22 14:01:26;;;;;;;0.88;0.88;;;;;;;10.20;86.64;97308.75;4956779;28;20125;-87
2022/12/22 14:04:00;;;;;;;1.13;0.85;;;;;;;10.18;86.43;97324.69;4977981;28;20046;-87
2022/12/22 14:06:31;;;;;;;1.63;1.05;;;;;;;10.20;86.23;97324.47;4972016;28;20470;-86
2022/12/22 14:09:26;;;;;;;1.80;1.02;;;;;;;10.17;85.92;97338.81;4973277;28;20031;-86
2022/12/22 14:12:17;;;;;;;3.33;0.98;;;;;;;10.22;85.19;97338.16;4975649;28;20050;-88
2022/12/22 14:14:46;;;;;;;1.25;0.70;;;;;;;10.22;86.09;97335.53;4968887;28;20070;-86
2022/12/22 14:17:24;;;;;;;1.80;1.10;;;;;;;10.21;85.89;97346.25;4982439;28;20038;-85
2022/12/22 14:19:54;;;;;;;2.15;1.05;;;;;;;10.14;85.43;97347.09;4954441;28;20079;-85
2022/12/22 14:22:33;;;;;;;2.75;1.65;;;;;;;10.18;85.90;97350.09;4976426;28;20030;-86
2022/12/22 14:25:11;;;;;;;2.75;1.17;;;;;;;10.12;86.68;97348.31;4978290;28;20407;-86
2022/12/22 14:27:45;;;;;;;1.63;0.80;;;;;;;10.08;86.51;97352.41;4981275;28;20065;-85
2022/12/22 14:30:20;;;;;;;2.92;0.88;;;;;;;10.02;86.94;97358.50;4979251;28;20049;-85
2022/12/22 14:32:49;;;;;;;2.58;1.25;;;;;;;10.04;87.76;97362.50;4978230;28;20031;-85
2022/12/22 14:35:25;;;;;;;1.20;0.80;;;;;;;10.03;87.49;97366.13;4979824;28;20081;-85
2022/12/22 14:38:14;;;;;;;1.85;0.95;;;;;;;10.02;88.04;97374.22;4976957;28;20757;-86
2022/12/22 14:40:42;;;;;;;2.85;1.23;;;;;;;9.99;88.27;97375.44;4929125;28;20130;-85
2022/12/22 14:43:27;;;;;;;2.25;1.10;;;;;;;9.96;89.12;97377.69;4949973;28;20105;-85
2022/12/22 14:46:05;;;;;;;0.95;0.88;;;;;;;9.88;89.47;97369.06;4972107;28;20039;-85
2022/12/22 14:48:49;;;;;;;1.20;0.80;;;;;;;9.89;88.72;97378.50;4971631;28;20058;-86
2022/12/22 14:51:35;;;;;;;1.80;1.00;;;;;;;9.85;88.80;97369.50;4956718;28;20503;-85
2022/12/22 14:54:27;;;;;;;3.25;1.10;;;;;;;9.92;88.28;97401.69;4973275;28;20133;-85
2022/12/22 14:57:23;;;;;;;1.55;0.90;;;;;;;9.91;88.90;97394.84;4961930;28;20050;-87
2022/12/22 15:00:21;;;;;;;2.05;0.80;;;;;;;9.84;89.43;97399.31;4960994;28;20086;-86
2022/12/22 15:03:31;;;;;;;2.25;0.88;;;;;;;9.85;89.38;97405.38;4961791;28;20049;-86
2022/12/22 15:06:46;;;;;;;0.95;0.90;;;;;;;9.81;89.98;97423.31;4964251;28;20098;-86
2022/12/22 15:09:32;;;;;;;1.85;0.80;;;;;;;9.68;89.56;97426.00;4965161;28;20047;-85
2022/12/22 15:12:18;;;;;;;3.88;1.00;;;;;;;9.81;90.08;97409.41;4962289;28;20628;-87
2022/12/22 15:15:14;;;;;;;2.42;0.98;;;;;;;9.60;90.15;97410.53;4963137;28;20043;-87
2022/12/22 15:18:03;;;;;;;3.00;1.08;;;;;;;9.73;90.85;97418.31;4960095;28;20066;-86
2022/12/22 15:20:52;;;;;;;2.70;1.00;;;;;;;9.63;91.53;97423.19;4950282;28;20403;-88
2022/12/22 15:23:51;;;;;;;;;;;;;;;;;;;;;
2022/12/22 16:35:32;;;;;;;5.85;2.33;;;;;;;8.85;100.00;97510.38;4843233;26;86377;-90
2022/12/22 16:37:59;;;;;;;4.55;2.15;;;;;;;8.92;100.00;97520.03;4967724;28;20055;-90
2022/12/22 16:40:27;;;;;;;6.85;2.85;;;;;;;8.97;100.00;97530.69;4940198;28;20117;-89
2022/12/22 16:43:07;;;;;;;8.80;3.22;;;;;;;8.92;100.00;97526.06;4949103;28;20090;-90
2022/12/22 16:45:52;;;;;;;9.40;3.45;;;;;;;8.92;99.31;97512.19;4968104;28;20129;-89
2022/12/22 16:48:28;;;;;;;9.32;2.72;;;;;;;8.93;99.03;97519.81;4946935;28;20145;-89
2022/12/22 16:50:55;;;;;;;5.15;2.70;;;;;;;9.03;98.84;97535.13;4966844;28;20105;-89
2022/12/22 16:53:20;;;;;;;7.43;3.03;;;;;;;9.03;98.21;97537.75;4950216;28;20165;-89
2022/12/22 16:55:46;;;;;;;6.20;3.15;;;;;;;9.05;98.15;97527.88;4945807;28;20047;-89
2022/12/22 16:58:12;;;;;;;3.55;2.42;;;;;;;9.07;97.33;97531.09;4940679;28;20129;-88
2022/12/22 17:00:41;;;;;;;9.10;3.28;;;;;;;9.15;97.75;97541.34;4959888;28;20030;-87